createdAt,value
2022-09-06T00:00:58.140Z,52.20
2022-09-06T00:03:25.025Z,52.30
2022-09-06T00:05:51.649Z,52.97
2022-09-06T00:08:18.269Z,52.42
2022-09-06T00:10:44.813Z,52.76
2022-09-06T00:13:11.816Z,52.83
2022-09-06T00:15:38.458Z,53.39
2022-09-06T00:18:06.795Z,53.35
2022-09-06T00:20:34.642Z,53.33
2022-09-06T00:23:04.336Z,52.76
2022-09-06T00:25:31.991Z,53.19
2022-09-06T00:28:01.458Z,53.38
2022-09-06T00:30:29.686Z,52.96
2022-09-06T00:32:56.991Z,52.91
2022-09-06T00:35:24.959Z,52.82
2022-09-06T00:37:52.406Z,52.72
2022-09-06T00:40:19.042Z,52.05
2022-09-06T00:42:45.624Z,51.60
2022-09-06T00:45:12.794Z,51.43
2022-09-06T00:47:41.546Z,51.63
2022-09-06T00:50:11.049Z,51.72
2022-09-06T00:52:38.639Z,51.69
2022-09-06T00:55:06.277Z,51.54
2022-09-06T00:57:33.114Z,51.11
2022-09-06T01:00:00.589Z,51.14
2022-09-06T01:02:27.311Z,50.85
2022-09-06T01:04:55.375Z,51.22
2022-09-06T01:07:44.927Z,51.58
2022-09-06T01:10:20.479Z,51.12
2022-09-06T01:13:11.553Z,51.26
2022-09-06T01:16:13.660Z,51.79
2022-09-06T01:18:49.243Z,51.89
2022-09-06T01:21:18.590Z,51.51
2022-09-06T01:24:19.028Z,50.73
2022-09-06T01:27:10.489Z,50.40
2022-09-06T01:29:56.282Z,50.10
2022-09-06T01:32:34.890Z,50.13
2022-09-06T01:35:36.148Z,50.71
2022-09-06T01:38:03.926Z,51.61
2022-09-06T01:40:30.799Z,51.82
2022-09-06T01:42:58.287Z,51.83
2022-09-06T01:45:42.569Z,51.51
2022-09-06T01:48:17.755Z,51.45
2022-09-06T01:50:56.969Z,52.18
2022-09-06T01:53:36.356Z,52.66
2022-09-06T01:56:43.508Z,52.54
2022-09-06T01:59:40.636Z,53.25
2022-09-06T02:02:26.718Z,52.47
2022-09-06T02:05:01.430Z,51.99
2022-09-06T02:07:30.986Z,51.46
2022-09-06T02:10:06.613Z,51.00
2022-09-06T02:12:35.577Z,51.60
2022-09-06T02:15:07.401Z,52.11
2022-09-06T02:17:39.057Z,52.42
2022-09-06T02:20:11.357Z,52.54
2022-09-06T02:22:42.579Z,51.30
2022-09-06T02:25:15.143Z,51.17
2022-09-06T02:27:41.837Z,50.98
2022-09-06T02:30:09.014Z,51.43
2022-09-06T02:32:40.275Z,51.44
2022-09-06T02:35:14.738Z,51.67
2022-09-06T02:37:42.915Z,52.04
2022-09-06T02:40:10.545Z,52.62
2022-09-06T02:42:37.526Z,52.72
2022-09-06T02:45:05.333Z,53.42
2022-09-06T02:47:31.946Z,53.72
2022-09-06T02:49:58.573Z,52.52
2022-09-06T02:52:25.221Z,52.57
2022-09-06T02:54:52.321Z,52.12
2022-09-06T02:57:18.995Z,51.84
2022-09-06T02:59:46.336Z,51.72
2022-09-06T03:02:12.987Z,51.48
2022-09-06T03:04:39.677Z,51.45
2022-09-06T03:07:06.253Z,51.91
2022-09-06T03:09:32.853Z,52.52
2022-09-06T03:11:59.516Z,54.43
2022-09-06T03:14:26.155Z,52.95
2022-09-06T03:16:52.819Z,52.92
2022-09-06T03:19:20.188Z,53.88
2022-09-06T03:21:46.891Z,52.59
2022-09-06T03:24:13.607Z,52.58
2022-09-06T03:26:40.191Z,52.20
2022-09-06T03:29:06.840Z,51.85
2022-09-06T03:31:33.441Z,51.67
2022-09-06T03:34:00.155Z,52.07
2022-09-06T03:36:26.781Z,52.87
2022-09-06T03:38:54.146Z,53.87
2022-09-06T03:41:20.752Z,54.11
2022-09-06T03:43:47.382Z,53.79
2022-09-06T03:46:14.106Z,53.22
2022-09-06T03:48:40.987Z,54.27
2022-09-06T03:51:07.674Z,54.06
2022-09-06T03:53:34.321Z,53.48
2022-09-06T03:56:01.472Z,53.31
2022-09-06T03:58:33.105Z,53.58
2022-09-06T04:01:11.785Z,53.30
2022-09-06T04:03:39.523Z,53.01
2022-09-06T04:06:07.065Z,52.89
2022-09-06T04:08:35.913Z,52.87
2022-09-06T04:11:03.109Z,52.61
2022-09-06T04:13:30.402Z,53.66
2022-09-06T04:15:57.800Z,52.68
2022-09-06T04:18:24.545Z,52.66
2022-09-06T04:20:52.982Z,52.65
2022-09-06T04:23:20.333Z,53.36
2022-09-06T04:25:48.354Z,52.91
2022-09-06T04:28:15.957Z,53.87
2022-09-06T04:30:42.627Z,53.59
2022-09-06T04:33:09.300Z,53.34
2022-09-06T04:35:36.122Z,53.72
2022-09-06T04:38:03.792Z,54.43
2022-09-06T04:40:30.445Z,53.61
2022-09-06T04:42:57.022Z,52.97
2022-09-06T04:45:24.890Z,54.74
2022-09-06T04:47:51.610Z,55.29
2022-09-06T04:50:18.256Z,55.22
2022-09-06T04:52:48.056Z,54.24
2022-09-06T04:55:14.958Z,54.58
2022-09-06T04:57:45.162Z,53.46
2022-09-06T05:00:14.614Z,53.60
2022-09-06T05:02:41.246Z,53.05
2022-09-06T05:05:08.385Z,52.94
2022-09-06T05:07:35.078Z,53.33
2022-09-06T05:10:01.858Z,53.03
2022-09-06T05:12:28.628Z,53.83
2022-09-06T05:14:55.371Z,53.99
2022-09-06T05:17:22.002Z,54.92
2022-09-06T05:19:48.664Z,55.13
2022-09-06T05:22:15.354Z,56.65
2022-09-06T05:24:41.966Z,56.34
2022-09-06T05:27:08.912Z,57.02
2022-09-06T05:29:35.514Z,56.75
2022-09-06T05:32:02.463Z,57.71
2022-09-06T05:34:29.285Z,58.58
2022-09-06T05:36:55.889Z,58.88
2022-09-06T05:39:23.082Z,59.76
2022-09-06T05:41:49.786Z,59.98
2022-09-06T05:44:16.411Z,60.36
2022-09-06T05:46:46.652Z,60.80
2022-09-06T05:49:13.822Z,61.79
2022-09-06T05:51:40.848Z,62.61
2022-09-06T05:54:07.983Z,63.00
2022-09-06T05:56:34.758Z,63.09
2022-09-06T05:59:01.462Z,62.75
2022-09-06T06:01:30.200Z,61.97
2022-09-06T06:03:57.847Z,62.39
2022-09-06T06:06:26.198Z,62.92
2022-09-06T06:08:53.180Z,62.00
2022-09-06T06:11:20.158Z,62.88
2022-09-06T06:13:46.813Z,62.16
2022-09-06T06:16:18.171Z,62.79
2022-09-06T06:18:48.793Z,62.06
2022-09-06T06:21:20.571Z,61.95
2022-09-06T06:23:53.562Z,62.13
2022-09-06T06:26:20.583Z,61.72
2022-09-06T06:28:47.223Z,60.93
2022-09-06T06:31:14.626Z,60.82
2022-09-06T06:33:41.878Z,61.32
2022-09-06T06:36:23.550Z,61.22
2022-09-06T06:38:52.764Z,60.89
2022-09-06T06:41:21.388Z,61.21
2022-09-06T06:43:48.089Z,61.02
2022-09-06T06:46:17.320Z,60.48
2022-09-06T06:48:45.547Z,60.07
2022-09-06T06:51:14.690Z,60.45
2022-09-06T06:53:41.504Z,60.77
2022-09-06T06:56:15.539Z,60.66
2022-09-06T06:58:42.688Z,60.29
2022-09-06T07:01:10.189Z,59.13
2022-09-06T07:03:37.049Z,59.33
2022-09-06T07:06:12.939Z,59.93
2022-09-06T07:08:40.640Z,59.32
2022-09-06T07:11:09.922Z,59.12
2022-09-06T07:13:37.317Z,58.81
2022-09-06T07:16:15.280Z,58.83
2022-09-06T07:18:43.270Z,58.72
2022-09-06T07:26:31.863Z,58.66
2022-09-06T07:29:01.798Z,58.62
2022-09-06T07:34:17.772Z,58.61
2022-09-06T07:36:44.409Z,58.50
2022-09-06T07:39:11.084Z,58.09
2022-09-06T07:41:37.723Z,58.00
2022-09-06T07:44:04.342Z,58.02
2022-09-06T07:46:31.017Z,57.30
2022-09-06T07:48:57.744Z,57.70
2022-09-06T07:51:24.343Z,57.10
2022-09-06T07:54:06.965Z,56.62
2022-09-06T07:56:40.566Z,57.22
2022-09-06T07:59:07.214Z,56.83
2022-09-06T08:01:35.351Z,57.47
2022-09-06T08:04:06.187Z,57.08
2022-09-06T08:09:22.506Z,56.05
2022-09-06T08:11:51.068Z,56.27
2022-09-06T08:14:17.686Z,55.54
2022-09-06T08:16:44.389Z,56.20
2022-09-06T08:19:12.462Z,55.92
2022-09-06T08:21:39.243Z,55.31
2022-09-06T08:24:08.047Z,55.80
2022-09-06T08:26:39.856Z,55.53
2022-09-06T08:29:08.756Z,55.13
2022-09-06T08:31:38.489Z,54.43
2022-09-06T08:34:05.931Z,55.16
2022-09-06T08:36:33.038Z,54.53
2022-09-06T08:39:01.633Z,54.39
2022-09-06T08:41:37.880Z,55.17
2022-09-06T08:47:04.484Z,54.47
2022-09-06T08:49:39.153Z,54.47
2022-09-06T08:52:24.342Z,54.79
2022-09-06T08:54:56.456Z,54.25
2022-09-06T08:57:49.655Z,54.53
2022-09-06T09:00:17.264Z,54.51
2022-09-06T09:02:52.861Z,54.61
2022-09-06T09:05:25.687Z,53.82
2022-09-06T09:08:00.548Z,53.88
2022-09-06T09:10:39.579Z,54.66
2022-09-06T09:13:08.333Z,53.91
2022-09-06T09:15:40.176Z,53.51
2022-09-06T09:18:07.569Z,53.41
2022-09-06T09:20:34.217Z,53.51
2022-09-06T09:23:02.390Z,53.08
2022-09-06T09:25:33.387Z,53.04
2022-09-06T09:28:00.373Z,53.17
2022-09-06T09:30:47.599Z,52.77
2022-09-06T09:33:24.408Z,53.10
2022-09-06T09:35:51.797Z,53.13
2022-09-06T09:38:30.936Z,52.35
2022-09-06T09:41:00.109Z,51.79
2022-09-06T09:43:52.879Z,51.71
2022-09-06T09:46:22.530Z,52.11
2022-09-06T09:49:20.121Z,51.85
2022-09-06T09:52:05.016Z,51.94
2022-09-06T09:54:35.417Z,51.56
2022-09-06T09:57:04.453Z,51.48
2022-09-06T09:59:36.891Z,51.23
2022-09-06T10:02:35.779Z,50.87
2022-09-06T10:05:06.840Z,50.66
2022-09-06T10:07:34.308Z,50.82
2022-09-06T10:10:34.333Z,51.03
2022-09-06T10:13:21.768Z,51.15
2022-09-06T10:15:51.895Z,51.53
2022-09-06T10:18:30.156Z,51.18
2022-09-06T10:21:23.822Z,50.97
2022-09-06T10:26:58.718Z,51.89
2022-09-06T10:30:01.477Z,52.52
2022-09-06T10:32:58.719Z,53.04
2022-09-06T10:35:30.846Z,52.94
2022-09-06T10:38:33.295Z,53.33
2022-09-06T10:41:21.075Z,53.36
2022-09-06T10:43:54.496Z,53.28
2022-09-06T10:46:26.405Z,53.34
2022-09-06T10:48:56.216Z,53.39
2022-09-06T10:51:45.778Z,52.97
2022-09-06T10:54:21.979Z,53.07
2022-09-06T10:56:57.170Z,53.15
2022-09-06T10:59:39.264Z,53.05
2022-09-06T11:02:29.170Z,52.81
2022-09-06T11:10:51.196Z,52.08
2022-09-06T11:13:27.738Z,52.08
2022-09-06T11:15:55.296Z,51.90
2022-09-06T11:18:27.863Z,51.70
2022-09-06T11:21:20.154Z,51.55
2022-09-06T11:24:15.828Z,52.24
2022-09-06T11:26:44.114Z,51.97
2022-09-06T11:29:19.955Z,52.23
2022-09-06T11:34:54.809Z,51.82
2022-09-06T11:37:32.861Z,51.91
2022-09-06T11:40:28.626Z,51.87
2022-09-06T11:42:55.687Z,51.46
2022-09-06T11:45:53.410Z,51.31
2022-09-06T11:48:35.167Z,49.74
2022-09-06T11:51:03.706Z,49.71
2022-09-06T11:53:48.473Z,49.11
2022-09-06T11:56:41.813Z,47.65
2022-09-06T11:59:30.069Z,48.99
2022-09-06T12:02:19.905Z,47.84
2022-09-06T12:05:00.436Z,47.65
2022-09-06T12:07:29.505Z,46.85
2022-09-06T12:09:56.226Z,47.31
2022-09-06T12:12:41.763Z,46.58
2022-09-06T12:15:30.004Z,45.64
2022-09-06T12:17:58.494Z,45.36
2022-09-06T12:20:53.162Z,45.00
2022-09-06T12:23:34.984Z,45.29
2022-09-06T12:26:06.442Z,44.86
2022-09-06T12:28:47.395Z,44.41
2022-09-06T12:31:29.730Z,44.15
2022-09-06T12:33:57.601Z,43.39
2022-09-06T12:36:31.773Z,43.57
2022-09-06T12:38:59.766Z,43.21
2022-09-06T12:41:29.192Z,43.50
2022-09-06T12:43:58.469Z,43.21
2022-09-06T12:46:26.866Z,42.72
2022-09-06T12:49:00.889Z,42.87
2022-09-06T12:51:27.984Z,42.32
2022-09-06T12:53:58.487Z,42.07
2022-09-06T12:56:26.877Z,41.94
2022-09-06T12:59:09.640Z,40.98
2022-09-06T13:01:37.513Z,40.12
2022-09-06T13:04:26.406Z,39.96
2022-09-06T13:06:54.056Z,38.67
2022-09-06T13:09:22.901Z,38.58
2022-09-06T13:11:52.245Z,39.68
2022-09-06T13:14:26.806Z,38.66
2022-09-06T13:16:59.851Z,39.39
2022-09-06T13:19:36.063Z,38.97
2022-09-06T13:22:07.401Z,38.37
2022-09-06T13:24:36.855Z,38.82
2022-09-06T13:27:45.862Z,37.94
2022-09-06T13:30:30.054Z,36.72
2022-09-06T13:32:56.743Z,36.12
2022-09-06T13:35:29.315Z,35.83
2022-09-06T13:38:22.115Z,35.87
2022-09-06T13:41:11.547Z,35.85
2022-09-06T13:43:44.933Z,34.83
2022-09-06T13:46:11.999Z,35.54
2022-09-06T13:48:44.689Z,35.68
2022-09-06T13:51:11.538Z,38.02
2022-09-06T13:53:38.191Z,38.17
2022-09-06T13:56:08.581Z,38.40
2022-09-06T13:58:36.360Z,38.47
2022-09-06T14:01:04.931Z,39.87
2022-09-06T14:03:32.480Z,39.50
2022-09-06T14:06:00.320Z,40.22
2022-09-06T14:08:38.807Z,40.70
2022-09-06T14:11:14.865Z,41.40
2022-09-06T14:13:41.822Z,41.64
2022-09-06T14:16:08.567Z,42.54
2022-09-06T14:18:36.238Z,43.88
2022-09-06T14:21:03.283Z,44.45
2022-09-06T14:23:29.905Z,42.28
2022-09-06T14:25:57.558Z,39.45
2022-09-06T14:28:25.343Z,39.48
2022-09-06T14:30:52.348Z,39.74
2022-09-06T14:33:20.010Z,39.73
2022-09-06T14:35:47.607Z,39.81
2022-09-06T14:38:14.728Z,38.98
2022-09-06T14:40:45.593Z,38.48
2022-09-06T14:43:12.145Z,39.79
2022-09-06T14:45:38.837Z,40.90
2022-09-06T14:48:05.720Z,40.37
2022-09-06T14:50:32.459Z,40.52
2022-09-06T14:52:59.182Z,40.48
2022-09-06T14:55:28.092Z,40.77
2022-09-06T14:57:54.990Z,41.23
2022-09-06T15:00:22.692Z,41.66
2022-09-06T15:02:49.385Z,41.59
2022-09-06T15:05:16.202Z,41.60
2022-09-06T15:07:43.250Z,42.05
2022-09-06T15:10:10.871Z,42.09
2022-09-06T15:12:38.128Z,42.16
2022-09-06T15:15:05.626Z,41.88
2022-09-06T15:17:34.260Z,42.23
2022-09-06T15:20:01.174Z,41.23
2022-09-06T15:22:27.986Z,40.71
2022-09-06T15:24:54.679Z,40.66
2022-09-06T15:27:21.601Z,40.01
2022-09-06T15:29:48.204Z,39.74
2022-09-06T15:32:14.817Z,39.03
2022-09-06T15:34:41.503Z,39.00
2022-09-06T15:37:08.211Z,39.53
2022-09-06T15:39:35.029Z,38.44
2022-09-06T15:42:01.776Z,38.52
2022-09-06T15:44:28.518Z,38.58
2022-09-06T15:46:58.104Z,38.64
2022-09-06T15:49:31.209Z,38.87
2022-09-06T15:52:00.920Z,39.13
2022-09-06T15:54:47.060Z,38.17
2022-09-06T15:57:18.195Z,38.85
2022-09-06T15:59:45.759Z,38.84
2022-09-06T16:02:12.764Z,38.81
2022-09-06T16:04:39.543Z,38.95
2022-09-06T16:07:07.167Z,39.18
2022-09-06T16:09:33.786Z,39.56
2022-09-06T16:12:00.404Z,39.87
2022-09-06T16:14:28.334Z,40.07
2022-09-06T16:16:55.140Z,40.05
2022-09-06T16:19:21.831Z,40.48
2022-09-06T16:21:49.204Z,39.74
2022-09-06T16:24:18.244Z,40.29
2022-09-06T16:26:48.891Z,39.98
2022-09-06T16:29:18.124Z,39.97
2022-09-06T16:31:46.708Z,40.10
2022-09-06T16:34:14.118Z,40.23
2022-09-06T16:36:41.094Z,40.67
2022-09-06T16:39:08.985Z,40.72
2022-09-06T16:41:43.577Z,40.38
2022-09-06T16:44:16.462Z,40.48
2022-09-06T16:46:48.457Z,40.78
2022-09-06T16:49:17.391Z,40.07
2022-09-06T16:51:44.833Z,40.04
2022-09-06T16:54:11.524Z,40.40
2022-09-06T16:56:38.961Z,40.00
2022-09-06T16:59:07.491Z,39.98
2022-09-06T17:01:36.392Z,40.12
2022-09-06T17:04:04.486Z,39.27
2022-09-06T17:06:32.517Z,39.16
2022-09-06T17:08:59.481Z,39.51
2022-09-06T17:11:27.753Z,38.32
2022-09-06T17:13:55.419Z,38.47
2022-09-06T17:16:41.288Z,38.93
2022-09-06T17:19:08.787Z,38.35
2022-09-06T17:21:36.141Z,38.74
2022-09-06T17:24:04.749Z,39.05
2022-09-06T17:26:33.814Z,39.08
2022-09-06T17:29:00.508Z,40.20
2022-09-06T17:31:28.120Z,39.67
2022-09-06T17:33:54.895Z,41.12
2022-09-06T17:36:25.101Z,40.89
2022-09-06T17:38:54.123Z,41.19
2022-09-06T17:41:24.284Z,41.34
2022-09-06T17:43:52.881Z,42.18
2022-09-06T17:46:20.245Z,41.75
2022-09-06T17:48:46.976Z,42.00
2022-09-06T17:51:13.617Z,42.56
2022-09-06T17:53:43.880Z,42.61
2022-09-06T17:56:12.398Z,42.71
2022-09-06T17:58:40.465Z,43.09
2022-09-06T18:01:10.454Z,44.00
2022-09-06T18:03:39.714Z,43.97
2022-09-06T18:06:09.240Z,44.55
2022-09-06T18:08:37.782Z,44.50
2022-09-06T18:11:09.359Z,44.61
2022-09-06T18:13:36.593Z,45.35
2022-09-06T18:16:04.369Z,45.83
2022-09-06T18:18:31.699Z,46.40
2022-09-06T18:20:58.383Z,46.09
2022-09-06T18:23:28.578Z,46.40
2022-09-06T18:25:57.292Z,46.50
2022-09-06T18:28:24.387Z,46.98
2022-09-06T18:30:53.651Z,47.47
2022-09-06T18:33:23.708Z,46.95
2022-09-06T18:35:51.738Z,47.44
2022-09-06T18:38:18.656Z,47.35
2022-09-06T18:40:56.689Z,46.92
2022-09-06T18:43:27.015Z,47.41
2022-09-06T18:46:00.937Z,47.77
2022-09-06T18:48:28.910Z,47.85
2022-09-06T18:50:59.853Z,47.69
2022-09-06T18:53:26.646Z,48.10
2022-09-06T18:55:53.736Z,47.84
2022-09-06T18:58:20.339Z,47.47
2022-09-06T19:00:47.489Z,46.94
2022-09-06T19:03:14.459Z,47.08
2022-09-06T19:05:41.102Z,47.42
2022-09-06T19:08:08.093Z,47.23
2022-09-06T19:10:34.704Z,46.60
2022-09-06T19:13:01.384Z,47.00
2022-09-06T19:15:28.367Z,47.14
2022-09-06T19:17:55.113Z,46.90
2022-09-06T19:20:21.775Z,47.41
2022-09-06T19:22:51.147Z,47.88
2022-09-06T19:25:19.025Z,47.94
2022-09-06T19:27:48.669Z,48.74
2022-09-06T19:30:15.660Z,49.75
2022-09-06T19:32:42.325Z,50.17
2022-09-06T19:35:09.301Z,49.59
2022-09-06T19:37:35.911Z,48.80
2022-09-06T19:40:02.814Z,48.50
2022-09-06T19:42:29.554Z,48.65
2022-09-06T19:44:56.223Z,48.86
2022-09-06T19:47:22.840Z,49.18
2022-09-06T19:49:49.442Z,48.77
2022-09-06T19:52:16.043Z,48.41
2022-09-06T19:54:43.314Z,47.97
2022-09-06T19:57:10.191Z,47.93
2022-09-06T19:59:36.955Z,47.69
2022-09-06T20:02:03.757Z,47.96
2022-09-06T20:04:30.529Z,47.77
2022-09-06T20:06:58.441Z,47.70
2022-09-06T20:09:25.196Z,48.45
2022-09-06T20:11:52.038Z,49.04
2022-09-06T20:14:19.020Z,48.00
2022-09-06T20:16:45.796Z,48.27
2022-09-06T20:19:14.545Z,47.48
2022-09-06T20:21:41.371Z,47.37
2022-09-06T20:24:08.070Z,47.59
2022-09-06T20:26:34.687Z,47.27
2022-09-06T20:29:03.364Z,47.62
2022-09-06T20:31:31.832Z,47.56
2022-09-06T20:34:00.193Z,47.55
2022-09-06T20:36:27.017Z,47.94
2022-09-06T20:38:54.176Z,48.43
2022-09-06T20:41:23.727Z,48.11
2022-09-06T20:43:52.510Z,47.76
2022-09-06T20:46:21.198Z,47.75
2022-09-06T20:48:48.071Z,47.37
2022-09-06T20:51:20.115Z,47.45
2022-09-06T20:53:48.775Z,47.50
2022-09-06T20:56:18.563Z,47.49
2022-09-06T20:58:53.976Z,47.77
2022-09-06T21:01:23.303Z,47.87
2022-09-06T21:03:55.062Z,48.51
2022-09-06T21:06:22.832Z,47.85
2022-09-06T21:08:50.362Z,47.97
2022-09-06T21:11:18.082Z,47.88
2022-09-06T21:13:49.888Z,48.49
2022-09-06T21:16:21.815Z,47.96
2022-09-06T21:18:56.823Z,49.18
2022-09-06T21:21:25.360Z,50.23
2022-09-06T21:23:52.673Z,50.65
2022-09-06T21:26:22.600Z,49.32
2022-09-06T21:28:50.318Z,49.88
2022-09-06T21:31:23.222Z,49.51
2022-09-06T21:33:55.763Z,50.21
2022-09-06T21:36:30.275Z,50.98
2022-09-06T21:39:00.740Z,49.87
2022-09-06T21:41:28.949Z,50.33
2022-09-06T21:43:58.343Z,49.69
2022-09-06T21:46:32.374Z,49.71
2022-09-06T21:49:03.688Z,49.00
2022-09-06T21:51:31.100Z,49.97
2022-09-06T21:53:58.066Z,50.31
2022-09-06T21:56:25.347Z,49.60
2022-09-06T21:58:55.370Z,48.48
2022-09-06T22:01:27.820Z,48.25
2022-09-06T22:03:54.602Z,47.91
2022-09-06T22:06:24.769Z,48.28
2022-09-06T22:08:52.146Z,48.26
2022-09-06T22:11:30.376Z,48.85
2022-09-06T22:14:02.844Z,49.47
2022-09-06T22:16:31.146Z,50.26
2022-09-06T22:18:58.280Z,51.54
2022-09-06T22:21:25.278Z,52.44
2022-09-06T22:23:54.488Z,51.66
2022-09-06T22:26:21.957Z,52.59
2022-09-06T22:28:53.562Z,52.99
2022-09-06T22:31:20.477Z,52.34
2022-09-06T22:33:47.661Z,53.70
2022-09-06T22:36:14.373Z,53.30
2022-09-06T22:38:41.051Z,53.05
2022-09-06T22:41:08.115Z,53.58
2022-09-06T22:43:35.193Z,53.69
2022-09-06T22:46:04.597Z,53.96
2022-09-06T22:48:32.236Z,53.88
2022-09-06T22:51:00.619Z,53.43
2022-09-06T22:53:28.514Z,53.46
2022-09-06T22:55:55.830Z,54.58
2022-09-06T22:58:29.326Z,54.77
2022-09-06T23:00:56.995Z,53.90
2022-09-06T23:03:23.814Z,54.47
2022-09-06T23:05:50.498Z,53.79
2022-09-06T23:08:17.113Z,53.71
2022-09-06T23:10:44.359Z,53.48
2022-09-06T23:13:11.533Z,53.13
2022-09-06T23:15:41.016Z,53.21
2022-09-06T23:18:08.387Z,53.81
2022-09-06T23:20:37.109Z,52.47
2022-09-06T23:23:07.822Z,52.07
2022-09-06T23:25:38.885Z,51.23
2022-09-06T23:28:06.118Z,50.96
2022-09-06T23:30:35.919Z,51.37
2022-09-06T23:33:02.953Z,51.59
2022-09-06T23:35:29.985Z,51.53
2022-09-06T23:37:57.605Z,51.02
2022-09-06T23:40:24.461Z,51.07
2022-09-06T23:42:51.522Z,51.52
2022-09-06T23:45:19.364Z,51.15
2022-09-06T23:47:47.516Z,51.01
2022-09-06T23:50:15.519Z,51.39
2022-09-06T23:52:48.100Z,51.00
2022-09-06T23:55:15.231Z,51.25
2022-09-06T23:57:42.083Z,51.09
